Time;durP1;ratioP1;P1;durP2;ratioP2;P2;SDS_P1;SDS_P2;PMS_P1;PMS_P2;Temp;Humidity;BMP_temperature;BMP_pressure;BME280_temperature;BME280_humidity;BME280_pressure;Samples;Min_cycle;Max_cycle;Signal;HPM_P1;HPM_P2
2022/12/31 00:02:27;;;;;;;1.60;0.98;;;19.10;53.00;;;;;;6343419;28;20016;-72
2022/12/31 00:05:32;;;;;;;2.80;1.20;;;19.10;53.00;;;;;;6345219;28;20505;-71
2022/12/31 00:08:32;;;;;;;1.47;0.90;;;19.10;53.00;;;;;;6343799;28;20024;-72
2022/12/31 00:11:34;;;;;;;0.88;0.73;;;19.10;53.00;;;;;;6344665;28;20049;-72
2022/12/31 00:14:35;;;;;;;1.55;0.98;;;19.10;53.00;;;;;;6344590;28;20072;-71
2022/12/31 00:17:36;;;;;;;1.35;0.90;;;19.10;53.00;;;;;;6343219;28;20023;-72
2022/12/31 00:20:40;;;;;;;1.75;1.15;;;19.10;53.00;;;;;;6344757;28;20058;-71
2022/12/31 00:23:41;;;;;;;0.75;0.70;;;19.10;53.10;;;;;;6343407;28;20016;-71
2022/12/31 00:26:42;;;;;;;0.95;0.85;;;19.10;53.10;;;;;;6344446;28;20128;-72
2022/12/31 00:29:44;;;;;;;0.73;0.73;;;19.10;53.10;;;;;;6342841;28;20046;-71
2022/12/31 00:32:44;;;;;;;1.20;0.93;;;19.10;53.00;;;;;;6343881;28;20716;-71
2022/12/31 00:35:45;;;;;;;0.90;0.85;;;19.10;53.10;;;;;;6343547;28;20020;-71
2022/12/31 00:38:47;;;;;;;1.20;0.82;;;19.10;53.10;;;;;;6343170;28;20408;-71
2022/12/31 00:41:48;;;;;;;1.85;0.98;;;19.10;53.10;;;;;;6342581;28;20110;-71
2022/12/31 00:44:49;;;;;;;1.35;0.88;;;19.10;53.10;;;;;;6343726;28;20556;-71
2022/12/31 00:47:49;;;;;;;1.20;0.82;;;19.10;53.10;;;;;;6343569;28;20028;-71
2022/12/31 00:50:50;;;;;;;1.08;0.70;;;19.10;53.10;;;;;;6343940;28;20081;-71
2022/12/31 00:53:51;;;;;;;0.63;0.52;;;19.10;53.10;;;;;;6343482;28;20022;-71
2022/12/31 00:56:52;;;;;;;0.80;0.63;;;19.10;53.10;;;;;;6343648;28;20036;-71
2022/12/31 00:59:53;;;;;;;0.82;0.70;;;19.10;53.10;;;;;;6342371;28;20019;-72
2022/12/31 01:02:54;;;;;;;1.27;0.82;;;19.10;53.10;;;;;;6343001;28;20027;-71
2022/12/31 01:05:58;;;;;;;0.80;0.60;;;19.10;53.10;;;;;;6343449;28;20020;-73
2022/12/31 01:08:59;;;;;;;0.93;0.77;;;19.10;53.10;;;;;;6342362;28;20197;-73
2022/12/31 01:12:02;;;;;;;0.95;0.70;;;19.10;53.10;;;;;;6342394;28;20028;-72
2022/12/31 01:15:03;;;;;;;0.90;0.80;;;19.10;53.10;;;;;;6342171;28;20027;-73
2022/12/31 01:18:05;;;;;;;1.35;0.90;;;19.10;53.20;;;;;;6343447;28;20020;-72
2022/12/31 01:21:08;;;;;;;0.80;0.68;;;19.10;53.10;;;;;;6341732;28;20011;-73
2022/12/31 01:24:10;;;;;;;1.15;0.80;;;19.10;53.20;;;;;;6342120;28;20062;-73
2022/12/31 01:27:11;;;;;;;1.08;0.90;;;19.10;53.20;;;;;;6343230;28;20452;-74
2022/12/31 01:30:12;;;;;;;1.13;0.63;;;19.10;53.20;;;;;;6342375;28;20038;-72
2022/12/31 01:33:12;;;;;;;1.05;0.73;;;19.10;53.20;;;;;;6343158;28;20036;-73
2022/12/31 01:36:16;;;;;;;1.15;0.73;;;19.10;53.20;;;;;;6343143;28;20072;-73
2022/12/31 01:39:17;;;;;;;0.60;0.60;;;19.10;53.20;;;;;;6341894;28;20016;-72
2022/12/31 01:42:17;;;;;;;1.00;0.80;;;19.10;53.20;;;;;;6343487;28;20023;-73
2022/12/31 01:45:18;;;;;;;1.13;0.60;;;19.10;53.20;;;;;;6341808;28;20445;-73
2022/12/31 01:48:25;;;;;;;0.50;0.50;;;19.10;53.30;;;;;;6343143;28;20632;-72
2022/12/31 01:51:29;;;;;;;1.10;0.60;;;19.10;53.30;;;;;;6343523;28;20058;-73
2022/12/31 01:54:33;;;;;;;0.90;0.70;;;19.10;53.30;;;;;;6341761;28;20038;-71
2022/12/31 01:57:35;;;;;;;0.67;0.60;;;19.10;53.30;;;;;;6341175;28;20023;-71
2022/12/31 02:00:36;;;;;;;0.80;0.68;;;19.10;53.30;;;;;;6343752;28;20023;-72
2022/12/31 02:03:38;;;;;;;0.93;0.80;;;19.10;53.30;;;;;;6342346;28;20027;-73
2022/12/31 02:06:56;;;;;;;0.50;0.50;;;19.10;53.20;;;;;;6342401;28;20019;-74
2022/12/31 02:09:57;;;;;;;0.73;0.52;;;19.10;53.20;;;;;;6342436;28;20130;-74
2022/12/31 02:12:58;;;;;;;1.33;0.70;;;19.10;53.20;;;;;;6341846;28;20024;-74
2022/12/31 02:16:18;;;;;;;0.70;0.68;;;19.10;53.20;;;;;;6344344;28;20031;-72
2022/12/31 02:19:37;;;;;;;0.90;0.70;;;19.10;53.10;;;;;;6346001;28;20031;-71
2022/12/31 02:23:05;;;;;;;1.13;0.63;;;19.10;53.20;;;;;;6345808;28;20028;-71
2022/12/31 02:27:00;;;;;;;0.70;0.50;;;19.10;53.20;;;;;;6345143;28;20026;-71
2022/12/31 02:30:20;;;;;;;1.33;0.75;;;19.10;53.20;;;;;;6252622;28;20040;-71
2022/12/31 02:33:45;;;;;;;0.90;0.50;;;19.10;53.20;;;;;;6345454;28;20365;-71
2022/12/31 02:36:49;;;;;;;1.88;0.90;;;19.10;53.20;;;;;;6345503;28;20044;-71
2022/12/31 02:39:50;;;;;;;0.63;0.50;;;19.10;53.20;;;;;;6346424;28;20019;-71
2022/12/31 02:42:51;;;;;;;0.80;0.65;;;19.10;53.10;;;;;;6345041;28;20026;-71
2022/12/31 02:46:11;;;;;;;0.50;0.45;;;19.10;53.20;;;;;;6345546;28;20020;-71
2022/12/31 02:49:38;;;;;;;0.60;0.57;;;19.10;53.20;;;;;;6344821;28;20042;-71
2022/12/31 02:52:54;;;;;;;0.82;0.60;;;19.10;53.20;;;;;;6344836;28;20028;-71
2022/12/31 02:56:04;;;;;;;0.57;0.52;;;19.10;53.20;;;;;;6344621;28;20515;-73
2022/12/31 03:02:42;;;;;;;0.65;0.65;;;19.10;53.20;;;;;;6320797;28;20453;-71
2022/12/31 03:05:44;;;;;;;0.68;0.57;;;19.10;53.20;;;;;;6344433;28;20020;-71
2022/12/31 03:15:41;;;;;;;0.75;0.52;;;19.10;53.30;;;;;;6321499;28;20038;-71
2022/12/31 03:25:32;;;;;;;0.65;0.40;;;19.10;53.30;;;;;;6345701;28;20031;-71
2022/12/31 03:28:33;;;;;;;0.47;0.45;;;19.10;53.20;;;;;;6345273;28;20034;-71
2022/12/31 03:31:33;;;;;;;0.40;0.40;;;19.10;53.30;;;;;;6344748;28;20361;-71
2022/12/31 03:34:34;;;;;;;0.40;0.40;;;19.10;53.20;;;;;;6343765;28;20469;-71
2022/12/31 03:37:35;;;;;;;0.77;0.52;;;19.10;53.30;;;;;;6345387;28;20031;-71
2022/12/31 03:40:42;;;;;;;0.43;0.30;;;19.10;53.30;;;;;;6343849;28;20498;-71
2022/12/31 03:43:43;;;;;;;0.50;0.50;;;19.10;53.30;;;;;;6343750;28;20426;-71
2022/12/31 03:46:43;;;;;;;0.52;0.50;;;19.10;53.20;;;;;;6344906;28;20024;-71
2022/12/31 03:49:44;;;;;;;0.47;0.38;;;19.10;53.30;;;;;;6344916;28;20069;-71
2022/12/31 03:52:45;;;;;;;0.68;0.50;;;19.10;53.30;;;;;;6344993;28;20038;-71
2022/12/31 03:55:50;;;;;;;0.40;0.40;;;19.10;53.30;;;;;;6344829;28;20469;-71
2022/12/31 03:58:51;;;;;;;0.40;0.30;;;19.10;53.30;;;;;;6344315;28;20020;-71
2022/12/31 04:01:52;;;;;;;0.43;0.43;;;19.10;53.30;;;;;;6344540;28;20023;-71
2022/12/31 04:04:52;;;;;;;0.50;0.40;;;19.10;53.30;;;;;;6344243;28;20023;-71
2022/12/31 04:07:54;;;;;;;0.50;0.40;;;19.10;53.30;;;;;;6345677;28;20392;-71
2022/12/31 04:10:55;;;;;;;0.40;0.40;;;19.10;53.20;;;;;;6345489;28;20023;-72
2022/12/31 04:13:58;;;;;;;0.68;0.40;;;19.10;53.30;;;;;;6345502;28;20333;-71
2022/12/31 04:16:58;;;;;;;0.65;0.50;;;19.10;53.40;;;;;;6344235;28;20027;-72
2022/12/31 04:19:59;;;;;;;0.50;0.50;;;19.10;53.30;;;;;;6345286;28;20019;-71
2022/12/31 04:23:00;;;;;;;0.43;0.43;;;19.10;53.40;;;;;;6343941;28;20080;-71
2022/12/31 04:26:00;;;;;;;0.38;0.38;;;19.10;53.30;;;;;;6343760;28;20493;-72
2022/12/31 04:29:01;;;;;;;0.30;0.30;;;19.10;53.40;;;;;;6345302;28;20547;-72
2022/12/31 04:32:03;;;;;;;0.65;0.57;;;19.10;53.40;;;;;;6345006;28;20012;-71
2022/12/31 04:35:05;;;;;;;0.47;0.40;;;19.10;53.40;;;;;;6345227;28;20083;-71
2022/12/31 04:38:06;;;;;;;0.32;0.32;;;19.10;53.40;;;;;;6344214;28;20035;-72
2022/12/31 04:41:22;;;;;;;0.30;0.30;;;19.10;53.40;;;;;;6343715;28;20055;-71
2022/12/31 04:44:23;;;;;;;0.43;0.43;;;19.10;53.40;;;;;;6343774;28;20590;-72
2022/12/31 04:47:24;;;;;;;0.70;0.40;;;19.10;53.40;;;;;;6344762;28;20146;-71
2022/12/31 04:50:24;;;;;;;0.30;0.30;;;19.10;53.40;;;;;;6343422;28;20023;-71
2022/12/31 04:53:25;;;;;;;0.40;0.35;;;19.10;53.40;;;;;;6343404;28;20076;-72
2022/12/31 04:56:27;;;;;;;0.30;0.30;;;19.10;53.40;;;;;;6344328;28;20373;-71
2022/12/31 05:03:40;;;;;;;0.30;0.30;;;19.10;53.50;;;;;;6344708;28;20027;-71
2022/12/31 05:06:41;;;;;;;0.20;0.20;;;19.10;53.40;;;;;;6343105;28;20032;-71
2022/12/31 05:09:42;;;;;;;0.30;0.30;;;19.10;53.40;;;;;;6344409;28;20031;-71
2022/12/31 05:12:43;;;;;;;0.63;0.40;;;19.10;53.50;;;;;;6344231;28;20490;-71
2022/12/31 05:15:45;;;;;;;0.30;0.22;;;19.10;53.50;;;;;;6343019;28;20058;-71
2022/12/31 05:18:46;;;;;;;0.52;0.30;;;19.10;53.40;;;;;;6344385;28;20102;-71
2022/12/31 05:22:27;;;;;;;0.50;0.40;;;19.10;53.40;;;;;;6344465;28;20041;-71
2022/12/31 05:25:08;;;;;;;0.20;0.20;;;19.10;53.50;;;;;;6344010;28;20023;-72
2022/12/31 05:28:09;;;;;;;0.63;0.30;;;19.10;53.50;;;;;;6344442;28;20020;-71
2022/12/31 05:31:09;;;;;;;0.35;0.35;;;19.10;53.40;;;;;;6344030;28;20713;-71
2022/12/31 05:34:10;;;;;;;0.28;0.28;;;19.10;53.40;;;;;;6342815;28;20028;-71
2022/12/31 05:37:11;;;;;;;0.40;0.40;;;19.10;53.50;;;;;;6342761;28;20027;-71
2022/12/31 05:40:12;;;;;;;0.30;0.30;;;19.10;53.50;;;;;;6344425;28;20499;-71
2022/12/31 05:43:12;;;;;;;0.73;0.55;;;19.10;53.60;;;;;;6343892;28;20383;-71
2022/12/31 05:46:14;;;;;;;0.30;0.30;;;19.10;53.60;;;;;;6343965;28;20028;-71
2022/12/31 05:49:15;;;;;;;0.22;0.22;;;19.10;54.20;;;;;;6343159;28;20397;-71
2022/12/31 05:52:16;;;;;;;0.30;0.30;;;19.10;53.50;;;;;;6348965;28;20055;-72
2022/12/31 05:55:17;;;;;;;0.38;0.35;;;19.10;53.50;;;;;;6348670;28;20624;-71
2022/12/31 05:58:18;;;;;;;0.22;0.22;;;19.10;53.60;;;;;;6348860;28;20120;-71
2022/12/31 06:01:19;;;;;;;0.30;0.30;;;19.10;53.60;;;;;;6347046;28;20035;-72
2022/12/31 06:04:19;;;;;;;0.30;0.30;;;19.10;53.50;;;;;;6348592;28;20023;-71
2022/12/31 06:07:20;;;;;;;0.30;0.30;;;19.10;53.60;;;;;;6348482;28;20076;-71
2022/12/31 06:10:21;;;;;;;0.55;0.50;;;19.10;53.60;;;;;;6348236;28;20035;-71
2022/12/31 06:13:22;;;;;;;0.70;0.40;;;19.10;53.60;;;;;;6348150;28;20354;-72
2022/12/31 06:16:23;;;;;;;0.40;0.35;;;19.10;53.60;;;;;;6347859;27;20116;-71
2022/12/31 06:19:24;;;;;;;0.30;0.30;;;19.10;53.60;;;;;;6346842;28;20016;-72
2022/12/31 06:22:25;;;;;;;0.20;0.20;;;19.10;53.60;;;;;;6348289;28;20020;-71
2022/12/31 06:25:26;;;;;;;0.30;0.30;;;19.10;53.60;;;;;;6347942;28;20049;-71
2022/12/31 06:28:27;;;;;;;0.38;0.38;;;19.10;53.60;;;;;;6347070;28;20092;-71
2022/12/31 06:31:27;;;;;;;0.20;0.20;;;19.10;53.60;;;;;;6346871;28;20031;-70
2022/12/31 06:34:28;;;;;;;0.20;0.20;;;19.10;53.60;;;;;;6346661;28;20139;-71
2022/12/31 06:37:29;;;;;;;0.50;0.30;;;19.10;53.60;;;;;;6347804;28;20384;-71
2022/12/31 06:40:29;;;;;;;0.40;0.30;;;19.10;53.60;;;;;;6347956;28;20024;-70
2022/12/31 06:43:30;;;;;;;0.20;0.20;;;19.20;53.70;;;;;;6346375;28;20114;-72
2022/12/31 06:46:31;;;;;;;0.30;0.30;;;19.10;53.70;;;;;;6345930;28;20501;-72
2022/12/31 06:49:32;;;;;;;0.20;0.20;;;19.10;53.70;;;;;;6347705;28;20059;-71
2022/12/31 06:52:32;;;;;;;0.30;0.30;;;19.10;53.60;;;;;;6347416;28;20027;-71
2022/12/31 06:55:33;;;;;;;0.20;0.20;;;19.20;53.80;;;;;;6347540;28;20416;-71
2022/12/31 06:58:34;;;;;;;0.28;0.28;;;19.10;53.60;;;;;;6347029;28;20405;-71
2022/12/31 07:01:59;;;;;;;0.60;0.30;;;19.10;53.70;;;;;;6346909;28;20023;-70
2022/12/31 07:05:14;;;;;;;0.20;0.20;;;19.10;53.70;;;;;;6346987;28;20024;-71
2022/12/31 07:08:38;;;;;;;0.20;0.20;;;19.10;53.70;;;;;;6347090;27;20413;-71
2022/12/31 07:12:02;;;;;;;0.22;0.22;;;19.10;53.70;;;;;;6346866;28;20559;-71
2022/12/31 07:15:13;;;;;;;0.20;0.20;;;19.10;53.70;;;;;;6340482;28;20423;-71
2022/12/31 07:18:28;;;;;;;0.20;0.20;;;19.10;53.70;;;;;;6346653;28;20031;-72
2022/12/31 07:21:38;;;;;;;0.17;0.15;;;19.10;53.80;;;;;;6346997;28;20488;-71
2022/12/31 07:24:39;;;;;;;0.20;0.20;;;19.10;53.80;;;;;;6347124;28;20069;-71
2022/12/31 07:28:02;;;;;;;0.35;0.35;;;19.10;53.80;;;;;;6345268;28;20066;-71
2022/12/31 07:31:18;;;;;;;0.35;0.30;;;19.10;53.80;;;;;;6345393;28;20023;-72
2022/12/31 07:34:29;;;;;;;0.35;0.30;;;19.10;53.80;;;;;;6346534;28;20092;-71
2022/12/31 07:37:52;;;;;;;0.20;0.20;;;19.10;53.80;;;;;;6345115;28;20023;-71
2022/12/31 07:41:26;;;;;;;0.57;0.20;;;19.10;53.90;;;;;;6346229;28;20027;-71
2022/12/31 07:44:34;;;;;;;0.28;0.28;;;19.10;53.80;;;;;;6346164;28;20027;-71
2022/12/31 07:47:35;;;;;;;0.30;0.20;;;19.10;53.80;;;;;;6346326;28;20555;-71
2022/12/31 07:50:35;;;;;;;0.77;0.22;;;19.10;53.90;;;;;;6344649;28;20027;-71
2022/12/31 07:53:36;;;;;;;0.22;0.22;;;19.10;54.50;;;;;;6346116;28;20030;-71
2022/12/31 07:56:37;;;;;;;0.22;0.22;;;19.10;53.90;;;;;;6345794;27;20147;-71
2022/12/31 07:59:56;;;;;;;0.30;0.30;;;19.10;53.90;;;;;;6345962;28;20027;-70
2022/12/31 08:03:27;;;;;;;0.30;0.30;;;19.10;54.00;;;;;;6346164;28;20388;-71
2022/12/31 08:06:39;;;;;;;0.30;0.30;;;19.10;53.90;;;;;;6346061;28;20027;-72
2022/12/31 08:09:50;;;;;;;0.20;0.20;;;19.10;54.00;;;;;;6344291;28;20023;-72
2022/12/31 08:12:57;;;;;;;0.30;0.20;;;19.10;53.90;;;;;;6344913;28;20023;-70
2022/12/31 08:16:01;;;;;;;0.30;0.30;;;19.20;54.10;;;;;;6344437;28;20027;-72
2022/12/31 08:19:01;;;;;;;0.30;0.30;;;19.10;54.00;;;;;;6344096;28;20054;-72
2022/12/31 08:22:23;;;;;;;0.22;0.22;;;19.20;54.10;;;;;;6345422;28;20023;-72
2022/12/31 08:25:48;;;;;;;0.20;0.20;;;19.10;54.00;;;;;;6345327;28;20020;-72
2022/12/31 08:29:08;;;;;;;0.20;0.20;;;19.10;54.00;;;;;;6345315;28;20076;-72
2022/12/31 08:32:12;;;;;;;0.20;0.20;;;19.10;54.00;;;;;;6345234;28;20100;-71
2022/12/31 08:35:35;;;;;;;0.20;0.20;;;19.10;54.10;;;;;;6344393;28;20051;-71
2022/12/31 08:38:56;;;;;;;0.40;0.30;;;19.10;54.10;;;;;;6344071;28;20023;-72
2022/12/31 08:41:59;;;;;;;0.20;0.20;;;19.10;54.10;;;;;;6345054;28;20141;-71
2022/12/31 08:45:14;;;;;;;0.20;0.20;;;19.10;54.10;;;;;;6343731;28;20608;-72
2022/12/31 08:48:29;;;;;;;0.20;0.20;;;19.10;54.10;;;;;;6343513;28;20042;-72
2022/12/31 08:51:30;;;;;;;0.80;0.32;;;19.10;54.10;;;;;;6343474;28;20027;-72
2022/12/31 08:54:31;;;;;;;0.28;0.20;;;19.10;54.10;;;;;;6344748;28;20023;-71
2022/12/31 08:57:53;;;;;;;0.35;0.30;;;19.10;54.80;;;;;;6342989;28;20785;-71
2022/12/31 09:00:56;;;;;;;0.22;0.22;;;19.10;54.10;;;;;;6344097;28;20020;-71
2022/12/31 09:04:05;;;;;;;0.45;0.30;;;19.10;54.10;;;;;;6342228;28;20027;-72
2022/12/31 09:07:08;;;;;;;0.20;0.20;;;19.10;54.10;;;;;;6343623;28;20511;-71
2022/12/31 09:10:23;;;;;;;0.30;0.30;;;19.10;54.30;;;;;;6344997;28;20073;-72
2022/12/31 09:13:42;;;;;;;0.20;0.20;;;19.10;54.10;;;;;;6344067;28;20114;-71
2022/12/31 09:17:07;;;;;;;0.20;0.20;;;19.10;54.20;;;;;;6343026;28;20028;-70
2022/12/31 09:20:23;;;;;;;0.43;0.38;;;19.10;54.20;;;;;;6341897;28;20563;-71
2022/12/31 09:23:23;;;;;;;0.25;0.20;;;19.10;54.20;;;;;;6343409;28;20084;-71
2022/12/31 09:26:47;;;;;;;0.20;0.20;;;19.10;54.20;;;;;;6347790;28;20024;-71
2022/12/31 09:30:17;;;;;;;0.65;0.25;;;19.10;54.30;;;;;;6307657;28;20039;-71
2022/12/31 09:33:48;;;;;;;0.20;0.17;;;19.10;54.20;;;;;;6335724;28;20066;-71
2022/12/31 09:36:55;;;;;;;0.20;0.20;;;19.10;54.20;;;;;;6310690;27;20115;-71
2022/12/31 09:40:01;;;;;;;0.28;0.20;;;19.10;54.20;;;;;;6347638;28;20389;-71
2022/12/31 09:43:24;;;;;;;0.28;0.20;;;19.10;54.20;;;;;;6346940;28;20104;-71
2022/12/31 09:47:00;;;;;;;0.17;0.17;;;19.10;54.30;;;;;;6328528;28;20048;-71
2022/12/31 09:50:20;;;;;;;;;;;19.10;54.30;;;;;;6341010;28;20032;-71
2022/12/31 09:54:08;;;;;;;0.10;0.10;;;19.10;54.30;;;;;;6348466;28;19904;-71
2022/12/31 09:57:54;;;;;;;0.20;0.20;;;19.10;54.30;;;;;;6315145;28;20071;-71
2022/12/31 10:01:16;;;;;;;0.30;0.30;;;19.10;54.30;;;;;;6348022;28;20032;-71
2022/12/31 10:04:48;;;;;;;0.55;0.30;;;19.10;54.30;;;;;;6346431;28;20695;-71
2022/12/31 10:08:00;;;;;;;0.20;0.20;;;19.10;54.20;;;;;;6348173;28;20020;-71
2022/12/31 10:11:29;;;;;;;0.15;0.15;;;19.10;54.30;;;;;;6347769;28;20384;-71
2022/12/31 10:14:48;;;;;;;0.40;0.30;;;19.10;54.20;;;;;;6347427;28;20038;-71
2022/12/31 10:18:02;;;;;;;0.22;0.22;;;19.10;54.20;;;;;;6347370;28;20020;-71
2022/12/31 10:21:17;;;;;;;0.20;0.20;;;19.10;54.30;;;;;;6347351;28;20024;-71
2022/12/31 10:24:21;;;;;;;;;;;19.10;54.20;;;;;;6346135;28;20043;-70
2022/12/31 10:27:37;;;;;;;0.20;0.20;;;19.10;54.20;;;;;;6346981;28;19956;-70
2022/12/31 10:30:45;;;;;;;0.15;0.15;;;19.10;54.20;;;;;;6347038;28;20034;-71
2022/12/31 10:34:11;;;;;;;0.20;0.20;;;19.10;54.30;;;;;;6346330;28;20384;-71
2022/12/31 10:37:18;;;;;;;0.60;0.20;;;19.10;54.30;;;;;;6345694;28;20027;-71
2022/12/31 10:40:36;;;;;;;0.28;0.28;;;19.10;54.30;;;;;;6346847;28;20103;-71
2022/12/31 10:44:20;;;;;;;0.30;0.30;;;19.10;54.30;;;;;;6346798;28;20480;-71
2022/12/31 10:47:57;;;;;;;0.30;0.28;;;19.10;54.30;;;;;;6347069;28;20027;-71
2022/12/31 10:51:30;;;;;;;0.20;0.20;;;19.10;54.30;;;;;;6346588;28;20654;-71
2022/12/31 10:54:39;;;;;;;0.15;0.15;;;19.10;54.30;;;;;;6317074;28;20172;-71
2022/12/31 10:57:52;;;;;;;0.30;0.30;;;19.10;54.30;;;;;;6322994;28;20122;-71
2022/12/31 11:01:08;;;;;;;0.32;0.13;;;19.10;54.40;;;;;;6346041;28;20053;-71
2022/12/31 11:04:33;;;;;;;0.57;0.30;;;19.10;54.30;;;;;;6344646;28;20019;-71
2022/12/31 11:07:46;;;;;;;0.40;0.30;;;19.10;54.30;;;;;;6346356;28;20023;-71
2022/12/31 11:10:46;;;;;;;0.15;0.15;;;19.10;54.30;;;;;;6344436;28;20065;-71
2022/12/31 11:14:28;;;;;;;0.17;0.10;;;19.10;54.40;;;;;;6344692;28;20028;-71
2022/12/31 11:17:47;;;;;;;0.20;0.20;;;19.10;54.40;;;;;;6345486;27;20058;-71
2022/12/31 11:21:07;;;;;;;0.25;0.20;;;19.10;54.40;;;;;;6319554;28;20073;-71
2022/12/31 11:24:11;;;;;;;0.20;0.20;;;19.10;54.40;;;;;;6319072;28;20109;-71
2022/12/31 11:27:31;;;;;;;0.40;0.20;;;19.10;54.40;;;;;;6320512;28;20024;-71
2022/12/31 11:30:57;;;;;;;0.17;0.17;;;19.10;54.50;;;;;;6342351;28;20110;-71
2022/12/31 11:34:09;;;;;;;0.20;0.20;;;19.10;54.40;;;;;;6345189;28;20023;-71
2022/12/31 11:37:38;;;;;;;0.20;0.20;;;19.10;54.40;;;;;;6343400;28;20141;-71
2022/12/31 11:40:47;;;;;;;0.25;0.17;;;19.10;54.40;;;;;;6345138;28;20073;-71
2022/12/31 11:44:06;;;;;;;0.20;0.20;;;19.10;54.40;;;;;;6345188;28;20376;-71
2022/12/31 11:47:37;;;;;;;0.15;0.15;;;19.10;54.50;;;;;;6343898;28;20388;-71
2022/12/31 11:50:53;;;;;;;0.20;0.20;;;19.10;54.40;;;;;;6343647;28;20097;-70
2022/12/31 11:54:19;;;;;;;0.22;0.22;;;19.10;54.50;;;;;;6343079;28;20027;-70
2022/12/31 11:57:28;;;;;;;;;;;19.10;54.40;;;;;;6343850;28;20051;-70
2022/12/31 12:00:30;;;;;;;0.30;0.30;;;19.10;54.40;;;;;;6343724;28;19908;-71
2022/12/31 12:03:32;;;;;;;0.75;0.17;;;19.20;54.50;;;;;;6342870;28;20024;-70
2022/12/31 12:06:32;;;;;;;3.97;0.17;;;19.20;54.50;;;;;;6344617;28;20111;-71
2022/12/31 12:09:34;;;;;;;0.25;0.25;;;19.10;54.40;;;;;;6344383;28;20388;-70
2022/12/31 12:12:41;;;;;;;0.40;0.30;;;19.10;54.50;;;;;;6344088;28;20031;-70
2022/12/31 12:15:49;;;;;;;0.28;0.20;;;19.10;54.50;;;;;;6344504;28;20640;-70
2022/12/31 12:19:05;;;;;;;0.35;0.25;;;19.10;55.20;;;;;;6344505;28;20030;-70
2022/12/31 12:22:11;;;;;;;0.63;0.30;;;19.10;54.50;;;;;;6344106;28;20020;-71
2022/12/31 12:25:19;;;;;;;0.55;0.30;;;19.10;54.50;;;;;;6342758;28;20019;-71
2022/12/31 12:28:22;;;;;;;0.52;0.40;;;19.10;54.50;;;;;;6344264;28;20024;-70
2022/12/31 12:31:25;;;;;;;0.30;0.22;;;19.10;54.50;;;;;;6342953;28;20036;-70
2022/12/31 12:34:34;;;;;;;0.30;0.28;;;19.10;54.50;;;;;;6344110;28;20016;-70
2022/12/31 12:37:36;;;;;;;0.20;0.20;;;19.10;54.50;;;;;;6342761;28;20510;-71
2022/12/31 12:40:38;;;;;;;2.50;0.20;;;19.10;54.50;;;;;;6343649;28;20058;-70
2022/12/31 12:43:38;;;;;;;1.88;0.25;;;19.10;54.50;;;;;;6343304;28;20050;-71
2022/12/31 12:46:45;;;;;;;0.60;0.30;;;19.10;54.50;;;;;;6342224;28;20424;-70
2022/12/31 12:49:53;;;;;;;0.13;0.13;;;19.10;54.60;;;;;;6343437;28;20029;-70
2022/12/31 12:53:19;;;;;;;1.75;0.20;;;19.10;54.60;;;;;;6342125;28;20020;-70
2022/12/31 12:56:54;;;;;;;0.40;0.30;;;19.10;54.60;;;;;;6343266;28;20044;-70
2022/12/31 13:00:21;;;;;;;0.30;0.30;;;19.10;54.60;;;;;;6341815;28;20019;-70
2022/12/31 13:04:03;;;;;;;0.30;0.20;;;19.10;54.60;;;;;;6343929;28;20028;-70
2022/12/31 13:07:18;;;;;;;0.32;0.20;;;19.10;54.60;;;;;;6328780;28;20047;-72
2022/12/31 13:10:28;;;;;;;0.40;0.30;;;19.10;54.60;;;;;;6332588;28;20767;-70
2022/12/31 13:13:46;;;;;;;0.15;0.15;;;19.10;54.60;;;;;;6340481;28;20069;-70
2022/12/31 13:16:58;;;;;;;0.45;0.25;;;19.10;54.60;;;;;;6324414;28;20031;-71
2022/12/31 13:20:24;;;;;;;0.65;0.20;;;19.10;54.60;;;;;;6341952;28;20028;-70
2022/12/31 13:23:50;;;;;;;0.22;0.20;;;19.10;54.90;;;;;;6342257;28;20019;-70
2022/12/31 13:27:03;;;;;;;0.60;0.40;;;19.10;54.70;;;;;;6341481;28;20028;-71
2022/12/31 13:30:14;;;;;;;0.52;0.22;;;19.10;54.60;;;;;;6341623;28;20042;-71
2022/12/31 13:33:24;;;;;;;0.30;0.25;;;19.10;54.60;;;;;;6342058;28;20069;-71
2022/12/31 13:36:28;;;;;;;0.20;0.13;;;19.10;54.70;;;;;;6341062;28;20072;-70
2022/12/31 13:39:35;;;;;;;0.60;0.30;;;19.10;54.70;;;;;;6341852;28;20484;-70
2022/12/31 13:42:48;;;;;;;0.30;0.30;;;19.10;54.70;;;;;;6342105;28;20480;-70
2022/12/31 13:46:15;;;;;;;0.30;0.22;;;19.10;54.70;;;;;;6340428;28;20016;-70
2022/12/31 13:49:31;;;;;;;2.08;0.40;;;19.10;55.40;;;;;;6341764;28;20024;-70
2022/12/31 13:52:49;;;;;;;1.40;0.20;;;19.10;54.70;;;;;;6342277;28;20024;-70
2022/12/31 13:55:57;;;;;;;0.20;0.20;;;19.10;55.40;;;;;;6340482;28;20035;-70
2022/12/31 13:59:21;;;;;;;0.20;0.20;;;19.10;54.80;;;;;;6341330;28;20120;-70
2022/12/31 14:02:35;;;;;;;0.20;0.10;;;19.10;54.80;;;;;;6341671;28;20095;-70
2022/12/31 14:05:53;;;;;;;0.25;0.20;;;19.10;54.80;;;;;;6340275;28;20028;-71
2022/12/31 14:08:53;;;;;;;0.80;0.20;;;19.10;54.80;;;;;;6342091;28;20043;-71
2022/12/31 14:12:19;;;;;;;0.20;0.20;;;19.10;54.80;;;;;;6344048;28;20031;-72
2022/12/31 14:15:27;;;;;;;0.20;0.20;;;19.10;54.80;;;;;;6345963;28;20970;-71
2022/12/31 14:19:03;;;;;;;0.40;0.28;;;19.10;54.90;;;;;;6346173;28;20023;-72
2022/12/31 14:22:10;;;;;;;;;;;19.10;54.80;;;;;;6323344;28;20489;-72
2022/12/31 14:25:25;;;;;;;0.57;0.30;;;19.10;54.80;;;;;;6346418;28;19912;-72
2022/12/31 14:28:32;;;;;;;0.40;0.25;;;19.10;54.80;;;;;;6343647;28;20020;-72
2022/12/31 14:31:58;;;;;;;0.20;0.20;;;19.10;54.90;;;;;;6344930;28;20031;-72
2022/12/31 14:35:06;;;;;;;0.40;0.32;;;19.10;54.90;;;;;;6344954;28;20027;-72
2022/12/31 14:38:17;;;;;;;0.25;0.20;;;19.10;54.90;;;;;;6345911;28;20042;-72
2022/12/31 14:41:33;;;;;;;1.45;0.25;;;19.10;54.90;;;;;;6345987;27;20080;-72
2022/12/31 14:44:44;;;;;;;0.35;0.30;;;19.10;54.90;;;;;;6344420;28;20047;-72
2022/12/31 14:47:52;;;;;;;0.38;0.20;;;19.10;54.90;;;;;;6335785;28;20020;-72
2022/12/31 14:50:54;;;;;;;0.15;0.10;;;19.10;54.90;;;;;;6321901;28;20036;-72
2022/12/31 14:53:57;;;;;;;1.02;0.20;;;19.10;54.90;;;;;;6345357;28;20631;-71
2022/12/31 14:57:24;;;;;;;0.60;0.30;;;19.10;54.90;;;;;;6345671;28;20051;-72
2022/12/31 15:00:31;;;;;;;0.32;0.32;;;19.10;54.90;;;;;;6344869;28;20539;-72
2022/12/31 15:03:39;;;;;;;0.40;0.30;;;19.10;55.00;;;;;;6334498;27;20434;-72
2022/12/31 15:07:09;;;;;;;0.43;0.30;;;19.10;55.00;;;;;;6324134;28;20027;-71
2022/12/31 15:10:28;;;;;;;0.30;0.30;;;19.10;55.00;;;;;;6343059;28;20160;-70
2022/12/31 15:13:49;;;;;;;0.40;0.40;;;19.10;55.00;;;;;;6334929;28;20054;-70
2022/12/31 15:17:21;;;;;;;0.30;0.20;;;19.10;55.00;;;;;;6341855;28;20028;-71
2022/12/31 15:20:30;;;;;;;0.60;0.40;;;19.10;55.00;;;;;;6344574;28;20026;-71
2022/12/31 15:23:34;;;;;;;0.50;0.40;;;19.10;54.90;;;;;;6341461;28;20419;-70
2022/12/31 15:26:35;;;;;;;0.30;0.30;;;19.10;55.00;;;;;;6344203;28;20032;-70
2022/12/31 15:29:42;;;;;;;0.30;0.30;;;19.10;55.00;;;;;;6342814;28;20058;-70
2022/12/31 15:32:46;;;;;;;2.05;0.40;;;19.10;55.00;;;;;;6344323;28;20019;-70
2022/12/31 15:35:53;;;;;;;0.60;0.40;;;19.10;55.00;;;;;;6342815;28;20038;-69
2022/12/31 15:39:17;;;;;;;0.50;0.30;;;19.10;55.00;;;;;;6343162;28;20657;-70
2022/12/31 15:42:40;;;;;;;0.25;0.25;;;19.10;55.00;;;;;;6334447;28;20558;-70
2022/12/31 15:45:42;;;;;;;1.08;0.30;;;19.10;55.00;;;;;;6317346;28;20757;-71
2022/12/31 15:48:54;;;;;;;0.40;0.40;;;19.10;55.10;;;;;;6317983;28;20476;-71
2022/12/31 15:52:06;;;;;;;0.47;0.30;;;19.10;55.00;;;;;;6320382;28;20043;-68
2022/12/31 15:55:12;;;;;;;0.80;0.40;;;19.10;55.00;;;;;;6341977;28;20043;-70
2022/12/31 15:58:17;;;;;;;0.43;0.30;;;19.10;55.00;;;;;;6342697;28;20023;-70
2022/12/31 16:01:24;;;;;;;0.20;0.20;;;19.20;55.00;;;;;;6342166;28;20069;-70
2022/12/31 16:04:31;;;;;;;0.82;0.40;;;19.20;55.00;;;;;;6332265;28;20031;-71
2022/12/31 16:07:34;;;;;;;1.27;0.40;;;19.20;55.00;;;;;;6341678;28;20035;-70
2022/12/31 16:10:35;;;;;;;0.85;0.40;;;19.20;55.10;;;;;;6341760;28;20030;-71
2022/12/31 16:13:41;;;;;;;0.52;0.40;;;19.10;55.00;;;;;;6341673;28;20019;-70
2022/12/31 16:16:56;;;;;;;0.63;0.40;;;19.10;55.00;;;;;;6341276;28;20028;-69
2022/12/31 16:19:59;;;;;;;0.50;0.30;;;19.10;55.00;;;;;;6342742;28;20065;-69
2022/12/31 16:23:02;;;;;;;0.63;0.35;;;19.10;55.00;;;;;;6341020;28;20435;-69
2022/12/31 16:26:03;;;;;;;0.70;0.40;;;19.10;55.10;;;;;;6340144;28;20077;-69
2022/12/31 16:29:04;;;;;;;0.40;0.30;;;19.10;55.00;;;;;;6341157;28;20031;-69
2022/12/31 16:32:18;;;;;;;1.25;0.30;;;19.10;55.00;;;;;;6341155;28;20081;-69
2022/12/31 16:35:24;;;;;;;0.80;0.38;;;19.10;55.10;;;;;;6341432;28;20060;-69
2022/12/31 16:38:39;;;;;;;0.50;0.30;;;19.10;55.10;;;;;;6341609;28;20034;-69
2022/12/31 16:41:42;;;;;;;0.75;0.35;;;19.10;55.10;;;;;;6342411;28;20023;-69
2022/12/31 16:44:43;;;;;;;0.95;0.40;;;19.10;55.10;;;;;;6341920;28;20024;-69
2022/12/31 16:47:44;;;;;;;0.47;0.40;;;19.10;55.10;;;;;;6340296;28;20080;-69
2022/12/31 16:50:48;;;;;;;0.50;0.45;;;19.10;55.10;;;;;;6333516;28;20433;-69